Time;durP1;ratioP1;P1;durP2;ratioP2;P2;SDS_P1;SDS_P2;PMS_P1;PMS_P2;Temp;Humidity;BMP_temperature;BMP_pressure;BME280_temperature;BME280_humidity;BME280_pressure;Samples;Min_cycle;Max_cycle;Signal;HPM_P1;HPM_P2
2023/06/26 00:02:20;;;;;;;;;3.00;3.00;;;;;;;;5098363;27;28365;-81
2023/06/26 00:04:45;;;;;;;;;4.00;4.00;;;;;;;;5098647;27;28317;-81
2023/06/26 00:07:10;;;;;;;;;3.00;3.00;;;;;;;;5098058;27;28533;-81
2023/06/26 00:09:35;;;;;;;;;3.67;3.67;;;;;;;;5098049;27;28466;-81
2023/06/26 00:12:01;;;;;;;;;4.00;4.00;;;;;;;;5097860;27;28600;-81
2023/06/26 00:14:26;;;;;;;;;2.67;2.67;;;;;;;;5098337;27;28344;-81
2023/06/26 00:16:52;;;;;;;;;1.67;1.67;;;;;;;;5097929;27;28521;-81
2023/06/26 00:19:17;;;;;;;;;4.67;3.00;;;;;;;;5098247;27;28339;-81
2023/06/26 00:21:47;;;;;;;;;3.67;3.67;;;;;;;;5096624;28;28337;-81
2023/06/26 00:24:13;;;;;;;;;3.33;3.33;;;;;;;;5098020;27;28561;-81
2023/06/26 00:26:38;;;;;;;;;2.67;2.67;;;;;;;;5097048;27;28953;-81
2023/06/26 00:29:04;;;;;;;;;2.00;2.00;;;;;;;;5097639;27;28517;-81
2023/06/26 00:31:29;;;;;;;;;2.33;2.33;;;;;;;;5097834;28;28344;-81
2023/06/26 00:33:55;;;;;;;;;1.33;1.33;;;;;;;;5098129;28;28293;-81
2023/06/26 00:36:22;;;;;;;;;3.00;3.00;;;;;;;;5097664;27;28493;-81
2023/06/26 00:38:47;;;;;;;;;2.67;2.67;;;;;;;;5097432;28;28246;-81
2023/06/26 00:41:13;;;;;;;;;2.67;2.67;;;;;;;;5097657;28;28238;-81
2023/06/26 00:43:39;;;;;;;;;3.00;3.00;;;;;;;;5097727;27;28372;-81
2023/06/26 00:46:04;;;;;;;;;3.67;3.67;;;;;;;;5097548;27;28339;-81
2023/06/26 00:48:30;;;;;;;;;4.00;4.00;;;;;;;;5096169;28;28746;-81
2023/06/26 00:50:55;;;;;;;;;2.67;2.67;;;;;;;;5097599;28;28287;-81
2023/06/26 00:53:21;;;;;;;;;2.67;1.67;;;;;;;;5097824;28;28579;-81
2023/06/26 00:55:47;;;;;;;;;4.33;4.33;;;;;;;;5097330;28;28246;-81
2023/06/26 00:58:12;;;;;;;;;3.00;3.00;;;;;;;;5097095;28;28577;-81
2023/06/26 01:00:37;;;;;;;;;2.33;2.33;;;;;;;;5097339;27;28461;-81
2023/06/26 01:03:02;;;;;;;;;2.67;2.67;;;;;;;;5097893;27;28365;-81
2023/06/26 01:05:28;;;;;;;;;4.33;4.33;;;;;;;;5097262;27;28581;-81
2023/06/26 01:07:53;;;;;;;;;4.00;4.00;;;;;;;;5097700;27;28482;-81
2023/06/26 01:10:19;;;;;;;;;4.00;4.00;;;;;;;;5097173;27;28307;-81
2023/06/26 01:12:44;;;;;;;;;3.00;3.00;;;;;;;;5097363;27;28380;-81
2023/06/26 01:15:10;;;;;;;;;4.00;4.00;;;;;;;;5097102;27;28329;-81
2023/06/26 01:17:36;;;;;;;;;4.00;4.00;;;;;;;;5097332;27;28377;-81
2023/06/26 01:20:06;;;;;;;;;6.33;6.33;;;;;;;;5095804;28;28344;-81
2023/06/26 01:22:44;;;;;;;;;5.00;5.00;;;;;;;;5097412;27;28444;-81
2023/06/26 01:25:09;;;;;;;;;3.00;3.00;;;;;;;;5096938;27;28343;-81
2023/06/26 01:27:35;;;;;;;;;4.33;4.33;;;;;;;;5096973;27;28345;-81
2023/06/26 01:30:03;;;;;;;;;4.33;4.33;;;;;;;;5097127;27;28507;-81
2023/06/26 01:32:28;;;;;;;;;5.33;4.00;;;;;;;;5097374;27;28255;-81
2023/06/26 01:34:54;;;;;;;;;4.67;4.67;;;;;;;;5096798;27;28329;-81
2023/06/26 01:37:19;;;;;;;;;6.67;4.67;;;;;;;;5095750;28;28305;-81
2023/06/26 01:39:44;;;;;;;;;5.33;5.33;;;;;;;;5098859;27;28316;-81
2023/06/26 01:42:09;;;;;;;;;6.67;6.67;;;;;;;;5100323;28;28383;-81
2023/06/26 01:44:36;;;;;;;;;7.00;5.00;;;;;;;;5100394;27;28348;-81
2023/06/26 01:47:03;;;;;;;;;4.67;4.67;;;;;;;;5099276;28;28809;-81
2023/06/26 01:49:37;;;;;;;;;3.00;3.00;;;;;;;;5100340;27;28423;-81
2023/06/26 01:52:08;;;;;;;;;4.00;2.67;;;;;;;;5100559;27;28579;-81
2023/06/26 01:54:39;;;;;;;;;3.00;3.00;;;;;;;;5100195;27;28323;-81
2023/06/26 01:57:04;;;;;;;;;4.67;4.00;;;;;;;;5099849;28;28487;-81
2023/06/26 01:59:30;;;;;;;;;5.67;5.67;;;;;;;;5100090;27;28428;-81
2023/06/26 02:01:55;;;;;;;;;5.00;5.00;;;;;;;;5100404;27;28420;-81
2023/06/26 02:04:21;;;;;;;;;5.00;5.00;;;;;;;;5099930;27;28565;-81
2023/06/26 02:06:46;;;;;;;;;3.00;3.00;;;;;;;;5100281;27;28391;-81
2023/06/26 02:09:11;;;;;;;;;4.67;4.67;;;;;;;;5099917;27;28364;-81
2023/06/26 02:11:36;;;;;;;;;4.00;4.00;;;;;;;;5100318;28;28566;-81
2023/06/26 02:14:02;;;;;;;;;4.00;4.00;;;;;;;;5099613;27;28405;-81
2023/06/26 02:16:27;;;;;;;;;4.33;4.33;;;;;;;;5098731;28;29474;-81
2023/06/26 02:18:53;;;;;;;;;7.67;5.33;;;;;;;;5099840;27;28241;-81
2023/06/26 02:21:18;;;;;;;;;4.33;4.33;;;;;;;;5098745;28;28345;-81
2023/06/26 02:23:43;;;;;;;;;4.67;4.67;;;;;;;;5099618;27;28662;-81
2023/06/26 02:26:08;;;;;;;;;6.33;6.33;;;;;;;;5098572;28;28218;-81
2023/06/26 02:28:34;;;;;;;;;6.33;6.33;;;;;;;;5099407;27;28342;-81
2023/06/26 02:30:59;;;;;;;;;7.67;4.67;;;;;;;;5098635;28;28281;-81
2023/06/26 02:33:24;;;;;;;;;4.00;4.00;;;;;;;;5099589;27;28360;-81
2023/06/26 02:35:50;;;;;;;;;3.67;3.00;;;;;;;;5099753;27;28247;-81
2023/06/26 02:38:16;;;;;;;;;5.67;5.67;;;;;;;;5099398;28;28320;-81
2023/06/26 02:40:41;;;;;;;;;3.00;3.00;;;;;;;;5099603;27;28386;-81
2023/06/26 02:43:07;;;;;;;;;3.33;3.33;;;;;;;;5099043;28;28339;-81
2023/06/26 02:45:32;;;;;;;;;6.00;3.00;;;;;;;;5099638;27;28452;-81
2023/06/26 02:47:57;;;;;;;;;6.00;5.00;;;;;;;;5098148;28;28387;-81
2023/06/26 02:50:22;;;;;;;;;3.33;3.33;;;;;;;;5097833;28;28303;-81
2023/06/26 02:52:50;;;;;;;;;2.33;2.33;;;;;;;;5097902;28;28436;-81
2023/06/26 02:55:15;;;;;;;;;5.33;3.00;;;;;;;;5099476;27;28416;-81
2023/06/26 02:57:41;;;;;;;;;4.00;4.00;;;;;;;;5098909;27;28515;-81
2023/06/26 03:00:08;;;;;;;;;4.00;3.00;;;;;;;;5099463;27;28484;-81
2023/06/26 03:02:33;;;;;;;;;3.33;3.33;;;;;;;;5099031;27;28473;-81
2023/06/26 03:04:58;;;;;;;;;3.00;3.00;;;;;;;;5099325;27;28373;-81
2023/06/26 03:07:24;;;;;;;;;4.00;4.00;;;;;;;;5099180;28;28237;-81
2023/06/26 03:09:49;;;;;;;;;3.33;3.33;;;;;;;;5099272;27;28296;-81
2023/06/26 03:12:14;;;;;;;;;2.67;2.67;;;;;;;;5098841;27;28315;-81
2023/06/26 03:14:39;;;;;;;;;6.33;3.33;;;;;;;;5099145;28;28276;-81
2023/06/26 03:17:07;;;;;;;;;3.33;2.67;;;;;;;;5098985;27;28309;-81
2023/06/26 03:19:32;;;;;;;;;1.67;1.67;;;;;;;;5097941;28;28539;-81
2023/06/26 03:21:57;;;;;;;;;3.67;3.67;;;;;;;;5098842;27;29900;-81
2023/06/26 03:24:22;;;;;;;;;4.00;4.00;;;;;;;;5097573;28;28534;-81
2023/06/26 03:26:47;;;;;;;;;2.67;2.67;;;;;;;;5098778;28;28324;-81
2023/06/26 03:29:13;;;;;;;;;2.00;2.00;;;;;;;;5098847;27;28341;-81
2023/06/26 03:31:38;;;;;;;;;3.00;3.00;;;;;;;;5098610;28;28371;-81
2023/06/26 03:34:03;;;;;;;;;1.33;1.33;;;;;;;;5099022;28;28593;-81
2023/06/26 03:36:28;;;;;;;;;3.00;3.00;;;;;;;;5097416;28;28583;-81
2023/06/26 03:38:56;;;;;;;;;2.00;2.00;;;;;;;;5098422;27;28575;-81
2023/06/26 03:41:21;;;;;;;;;1.00;1.00;;;;;;;;5098280;28;28635;-81
2023/06/26 03:43:47;;;;;;;;;3.33;3.33;;;;;;;;5098364;27;28490;-81
2023/06/26 03:46:12;;;;;;;;;2.33;2.00;;;;;;;;5098627;27;28702;-81
2023/06/26 03:48:38;;;;;;;;;2.00;2.00;;;;;;;;5098749;27;28492;-81
2023/06/26 03:51:03;;;;;;;;;2.67;1.00;;;;;;;;5097098;28;28616;-81
2023/06/26 03:53:28;;;;;;;;;3.00;3.00;;;;;;;;5098601;27;28310;-81
2023/06/26 03:55:53;;;;;;;;;1.00;1.00;;;;;;;;5098328;27;28539;-81
2023/06/26 03:58:19;;;;;;;;;0.67;0.67;;;;;;;;5098120;27;28779;-81
2023/06/26 04:00:44;;;;;;;;;2.00;2.00;;;;;;;;5097528;27;28301;-81
2023/06/26 04:03:09;;;;;;;;;2.00;2.00;;;;;;;;5097908;27;28519;-81
2023/06/26 04:05:35;;;;;;;;;3.00;1.00;;;;;;;;5096967;28;28342;-81
2023/06/26 04:08:01;;;;;;;;;1.00;1.00;;;;;;;;5098434;27;28579;-81
2023/06/26 04:10:26;;;;;;;;;2.00;2.00;;;;;;;;5097982;28;28372;-81
2023/06/26 04:12:51;;;;;;;;;2.33;2.00;;;;;;;;5097901;28;28318;-81
2023/06/26 04:15:16;;;;;;;;;1.00;1.00;;;;;;;;5098194;28;28312;-81
2023/06/26 04:17:41;;;;;;;;;1.00;1.00;;;;;;;;5098272;28;28659;-81
2023/06/26 04:20:08;;;;;;;;;0.00;0.00;;;;;;;;5097995;27;29662;-80
2023/06/26 04:22:33;;;;;;;;;1.00;1.00;;;;;;;;5098017;27;28547;-81
2023/06/26 04:25:00;;;;;;;;;3.67;3.67;;;;;;;;5097876;28;28245;-81
2023/06/26 04:27:25;;;;;;;;;2.00;2.00;;;;;;;;5097896;27;28411;-81
2023/06/26 04:29:50;;;;;;;;;1.00;1.00;;;;;;;;5097929;27;28646;-81
2023/06/26 04:32:15;;;;;;;;;3.33;2.00;;;;;;;;5097971;27;28405;-81
2023/06/26 04:34:44;;;;;;;;;0.00;0.00;;;;;;;;5098263;27;28620;-81
2023/06/26 04:37:10;;;;;;;;;0.00;0.00;;;;;;;;5096720;28;28609;-81
2023/06/26 04:39:37;;;;;;;;;0.67;0.67;;;;;;;;5097197;27;28385;-81
2023/06/26 04:42:02;;;;;;;;;1.00;1.00;;;;;;;;5097245;28;28311;-81
2023/06/26 04:44:27;;;;;;;;;0.33;0.33;;;;;;;;5097923;27;28785;-81
2023/06/26 04:46:52;;;;;;;;;3.00;1.33;;;;;;;;5097926;27;28518;-81
2023/06/26 04:49:18;;;;;;;;;1.00;1.00;;;;;;;;5096106;28;30224;-81
2023/06/26 04:51:43;;;;;;;;;3.00;2.00;;;;;;;;5097667;27;28338;-81
2023/06/26 04:54:10;;;;;;;;;1.00;1.00;;;;;;;;5097610;27;28296;-81
2023/06/26 04:56:35;;;;;;;;;1.00;1.00;;;;;;;;5097685;27;28399;-81
2023/06/26 04:59:00;;;;;;;;;1.00;1.00;;;;;;;;5097018;27;28515;-81
2023/06/26 05:01:29;;;;;;;;;1.00;1.00;;;;;;;;5097453;27;28369;-81
2023/06/26 05:03:54;;;;;;;;;1.00;1.00;;;;;;;;5097641;27;28317;-81
2023/06/26 05:06:22;;;;;;;;;1.00;1.00;;;;;;;;5097553;27;28321;-81
2023/06/26 05:08:47;;;;;;;;;0.00;0.00;;;;;;;;5097370;27;28564;-80
2023/06/26 05:11:12;;;;;;;;;1.00;1.00;;;;;;;;5097477;27;28341;-81
2023/06/26 05:13:37;;;;;;;;;0.00;0.00;;;;;;;;5099508;27;28670;-81
2023/06/26 05:16:03;;;;;;;;;0.33;0.33;;;;;;;;5101139;27;28554;-81
2023/06/26 05:18:28;;;;;;;;;0.00;0.00;;;;;;;;5099303;28;29772;-81
2023/06/26 05:20:53;;;;;;;;;0.67;0.67;;;;;;;;5100821;27;28399;-81
2023/06/26 05:23:19;;;;;;;;;0.00;0.00;;;;;;;;5099598;28;28413;-81
2023/06/26 05:25:44;;;;;;;;;0.00;0.00;;;;;;;;5099606;28;28383;-81
2023/06/26 05:28:11;;;;;;;;;0.00;0.00;;;;;;;;5133394;27;29674;-81
2023/06/26 05:30:37;;;;;;;;;0.33;0.33;;;;;;;;5133839;27;28664;-81
2023/06/26 05:33:02;;;;;;;;;0.00;0.00;;;;;;;;5100853;27;28305;-81
2023/06/26 05:35:30;;;;;;;;;0.67;0.67;;;;;;;;5101054;27;28399;-81
2023/06/26 05:37:56;;;;;;;;;0.00;0.00;;;;;;;;5100674;28;28303;-81
2023/06/26 05:40:21;;;;;;;;;1.00;1.00;;;;;;;;5100092;27;28332;-81
2023/06/26 05:42:47;;;;;;;;;0.00;0.00;;;;;;;;5100393;28;28288;-81
2023/06/26 05:45:12;;;;;;;;;0.00;0.00;;;;;;;;5100850;27;28238;-81
2023/06/26 05:47:38;;;;;;;;;0.00;0.00;;;;;;;;5100711;27;29532;-81
2023/06/26 05:50:03;;;;;;;;;1.00;1.00;;;;;;;;5100456;27;28478;-81
2023/06/26 05:52:29;;;;;;;;;0.00;0.00;;;;;;;;5100557;27;28249;-81
2023/06/26 05:54:57;;;;;;;;;0.00;0.00;;;;;;;;5100517;27;28648;-81
2023/06/26 05:57:22;;;;;;;;;0.00;0.00;;;;;;;;5099890;27;28742;-81
2023/06/26 05:59:48;;;;;;;;;0.33;0.33;;;;;;;;5100308;27;28385;-81
2023/06/26 06:02:13;;;;;;;;;0.33;0.33;;;;;;;;5098990;28;28336;-81
2023/06/26 06:04:39;;;;;;;;;0.33;0.33;;;;;;;;5100463;27;28289;-81
2023/06/26 06:07:04;;;;;;;;;0.00;0.00;;;;;;;;5099951;28;29217;-81
2023/06/26 06:09:29;;;;;;;;;0.33;0.33;;;;;;;;5100132;27;28403;-81
2023/06/26 06:11:55;;;;;;;;;0.33;0.33;;;;;;;;5099839;27;28303;-81
2023/06/26 06:14:20;;;;;;;;;0.33;0.33;;;;;;;;5100325;27;28215;-82
2023/06/26 06:16:45;;;;;;;;;3.67;3.67;;;;;;;;5099863;27;28489;-82
2023/06/26 06:19:13;;;;;;;;;1.00;1.00;;;;;;;;5100030;27;28391;-82
2023/06/26 06:21:38;;;;;;;;;1.33;1.00;;;;;;;;5099925;27;28526;-81
2023/06/26 06:24:04;;;;;;;;;1.00;1.00;;;;;;;;5099266;27;28346;-82
2023/06/26 06:26:29;;;;;;;;;0.00;0.00;;;;;;;;5099918;27;28338;-81
2023/06/26 06:28:54;;;;;;;;;1.00;1.00;;;;;;;;5099492;27;28325;-82
2023/06/26 06:31:20;;;;;;;;;0.00;0.00;;;;;;;;5099995;27;28393;-81
2023/06/26 06:33:45;;;;;;;;;1.00;1.00;;;;;;;;5099949;27;28375;-82
2023/06/26 06:36:10;;;;;;;;;0.00;0.00;;;;;;;;5098329;28;29786;-82
2023/06/26 06:38:36;;;;;;;;;1.67;0.00;;;;;;;;5099416;27;28427;-82
2023/06/26 06:41:01;;;;;;;;;0.33;0.33;;;;;;;;5099339;28;28388;-81
2023/06/26 06:43:26;;;;;;;;;0.33;0.33;;;;;;;;5099519;27;28330;-81
2023/06/26 06:45:51;;;;;;;;;0.00;0.00;;;;;;;;5099596;27;28384;-82
2023/06/26 06:48:16;;;;;;;;;1.00;1.00;;;;;;;;5099552;27;28420;-82
2023/06/26 06:50:42;;;;;;;;;0.00;0.00;;;;;;;;5099550;28;28460;-82
2023/06/26 06:53:07;;;;;;;;;1.00;1.00;;;;;;;;5099731;27;28559;-82
2023/06/26 06:55:32;;;;;;;;;1.00;1.00;;;;;;;;5099190;27;28372;-82
2023/06/26 06:57:58;;;;;;;;;1.00;1.00;;;;;;;;5099220;27;28418;-82
2023/06/26 07:00:23;;;;;;;;;1.00;1.00;;;;;;;;5099244;27;28332;-82
2023/06/26 07:02:48;;;;;;;;;0.33;0.33;;;;;;;;5099781;28;28202;-82
2023/06/26 07:05:13;;;;;;;;;0.00;0.00;;;;;;;;5099163;27;28361;-82
2023/06/26 07:07:39;;;;;;;;;0.67;0.00;;;;;;;;5099411;28;28284;-82
2023/06/26 07:10:06;;;;;;;;;1.67;1.67;;;;;;;;5099192;27;28290;-82
2023/06/26 07:12:31;;;;;;;;;3.00;3.00;;;;;;;;5099064;27;28811;-82
2023/06/26 07:14:57;;;;;;;;;0.00;0.00;;;;;;;;5099004;27;28424;-82
2023/06/26 07:17:22;;;;;;;;;1.00;1.00;;;;;;;;5099086;27;28295;-82
2023/06/26 07:19:49;;;;;;;;;1.00;1.00;;;;;;;;5099131;27;28535;-82
2023/06/26 07:22:14;;;;;;;;;0.67;0.67;;;;;;;;5099159;27;28399;-82
2023/06/26 07:24:39;;;;;;;;;1.00;1.00;;;;;;;;5098702;28;29063;-82
2023/06/26 07:27:04;;;;;;;;;0.00;0.00;;;;;;;;5098796;28;28332;-82
2023/06/26 07:29:30;;;;;;;;;0.00;0.00;;;;;;;;5098939;28;28490;-82
2023/06/26 07:31:55;;;;;;;;;0.00;0.00;;;;;;;;5098956;28;28565;-82
2023/06/26 07:34:20;;;;;;;;;1.33;1.33;;;;;;;;5097442;28;29286;-81
2023/06/26 07:36:45;;;;;;;;;1.00;1.00;;;;;;;;5098604;28;28413;-81
2023/06/26 07:39:11;;;;;;;;;0.33;0.33;;;;;;;;5098534;28;28416;-82
2023/06/26 07:41:36;;;;;;;;;0.00;0.00;;;;;;;;5097086;28;28301;-82
2023/06/26 07:44:01;;;;;;;;;1.00;1.00;;;;;;;;5098594;27;28666;-82
2023/06/26 07:46:26;;;;;;;;;1.00;1.00;;;;;;;;5098509;27;28369;-82
2023/06/26 07:48:51;;;;;;;;;0.00;0.00;;;;;;;;5098591;27;28346;-82
2023/06/26 07:51:19;;;;;;;;;0.00;0.00;;;;;;;;5097222;28;28337;-82
2023/06/26 07:53:45;;;;;;;;;0.00;0.00;;;;;;;;5097092;28;30637;-82
2023/06/26 07:56:10;;;;;;;;;0.67;0.67;;;;;;;;5098255;28;28288;-82
2023/06/26 07:58:35;;;;;;;;;0.00;0.00;;;;;;;;5097993;28;28385;-82
2023/06/26 08:01:00;;;;;;;;;1.00;1.00;;;;;;;;5098320;27;28249;-82
2023/06/26 08:03:26;;;;;;;;;1.00;1.00;;;;;;;;5098445;28;29218;-82
2023/06/26 08:05:51;;;;;;;;;0.67;0.67;;;;;;;;5098197;27;28436;-82
2023/06/26 08:08:16;;;;;;;;;0.00;0.00;;;;;;;;5098452;27;28296;-82
2023/06/26 08:10:41;;;;;;;;;0.00;0.00;;;;;;;;5096708;28;28286;-82
2023/06/26 08:13:07;;;;;;;;;0.00;0.00;;;;;;;;5097997;27;28246;-82
2023/06/26 08:15:32;;;;;;;;;0.00;0.00;;;;;;;;5098266;27;28234;-82
2023/06/26 08:17:57;;;;;;;;;0.33;0.33;;;;;;;;5098273;27;28224;-83
2023/06/26 08:20:22;;;;;;;;;0.00;0.00;;;;;;;;5098069;28;28322;-84
2023/06/26 08:22:50;;;;;;;;;0.67;0.67;;;;;;;;5098029;27;29454;-84
2023/06/26 08:25:15;;;;;;;;;0.00;0.00;;;;;;;;5097905;27;28443;-84
2023/06/26 08:27:41;;;;;;;;;1.00;1.00;;;;;;;;5097756;27;28459;-84
2023/06/26 08:30:06;;;;;;;;;0.33;0.33;;;;;;;;5098032;27;28407;-84
2023/06/26 08:32:31;;;;;;;;;0.00;0.00;;;;;;;;5097852;27;29255;-82
2023/06/26 08:34:57;;;;;;;;;0.00;0.00;;;;;;;;5097739;27;28582;-82
2023/06/26 08:37:22;;;;;;;;;0.67;0.67;;;;;;;;5098162;27;28478;-82
2023/06/26 08:39:47;;;;;;;;;1.00;1.00;;;;;;;;5130313;27;28461;-82
2023/06/26 08:42:13;;;;;;;;;0.00;0.00;;;;;;;;5097354;28;28396;-82
2023/06/26 08:44:38;;;;;;;;;0.33;0.33;;;;;;;;5097673;27;28345;-82
2023/06/26 08:47:04;;;;;;;;;1.00;1.00;;;;;;;;5097276;27;28246;-82
2023/06/26 08:49:34;;;;;;;;;0.67;0.67;;;;;;;;5096300;28;28287;-82
2023/06/26 08:52:06;;;;;;;;;0.33;0.33;;;;;;;;5097714;27;28488;-82
2023/06/26 08:54:34;;;;;;;;;1.00;1.00;;;;;;;;5097217;27;28315;-82
2023/06/26 08:56:59;;;;;;;;;0.00;0.00;;;;;;;;5097401;28;28511;-81
2023/06/26 08:59:24;;;;;;;;;0.00;0.00;;;;;;;;5097607;27;28380;-82
2023/06/26 09:01:50;;;;;;;;;1.00;1.00;;;;;;;;5097413;27;29297;-82
2023/06/26 09:04:16;;;;;;;;;0.00;0.00;;;;;;;;5097554;27;28393;-82
2023/06/26 09:06:41;;;;;;;;;0.00;0.00;;;;;;;;5096333;28;28482;-82
2023/06/26 09:09:07;;;;;;;;;2.00;2.00;;;;;;;;5097421;27;28587;-82
2023/06/26 09:11:32;;;;;;;;;1.00;1.00;;;;;;;;5097230;27;28542;-82
2023/06/26 09:13:59;;;;;;;;;0.33;0.33;;;;;;;;5097178;27;28475;-82
2023/06/26 09:16:27;;;;;;;;;1.00;1.00;;;;;;;;5096258;28;28473;-81
2023/06/26 09:18:52;;;;;;;;;0.33;0.33;;;;;;;;5112943;27;28291;-82
2023/06/26 09:21:20;;;;;;;;;0.33;0.33;;;;;;;;5097009;28;28321;-82
2023/06/26 09:23:46;;;;;;;;;0.33;0.33;;;;;;;;5097267;27;28329;-82
2023/06/26 09:26:12;;;;;;;;;0.33;0.33;;;;;;;;5097486;27;28360;-82
2023/06/26 09:28:38;;;;;;;;;0.00;0.00;;;;;;;;5096867;27;28316;-82
2023/06/26 09:31:07;;;;;;;;;0.00;0.00;;;;;;;;5095857;28;29524;-82
2023/06/26 09:33:36;;;;;;;;;1.00;1.00;;;;;;;;5097097;27;28442;-82
2023/06/26 09:36:04;;;;;;;;;1.00;1.00;;;;;;;;5097119;27;28341;-82
2023/06/26 09:38:30;;;;;;;;;0.00;0.00;;;;;;;;5096966;27;28510;-82
2023/06/26 09:40:55;;;;;;;;;0.00;0.00;;;;;;;;5096635;28;28400;-82
2023/06/26 09:43:20;;;;;;;;;0.00;0.00;;;;;;;;5096724;28;28292;-82
2023/06/26 09:45:45;;;;;;;;;0.00;0.00;;;;;;;;5097174;27;28340;-82
2023/06/26 09:48:13;;;;;;;;;1.00;1.00;;;;;;;;5096970;27;28296;-82
2023/06/26 09:50:41;;;;;;;;;1.33;1.33;;;;;;;;5095392;28;29664;-82
2023/06/26 09:53:10;;;;;;;;;2.67;2.67;;;;;;;;5095650;28;29549;-82
2023/06/26 09:55:49;;;;;;;;;;;;;;;;;;;;;
2023/06/26 09:58:17;;;;;;;;;1.00;1.00;;;;;;;;5095420;28;51875;-82
2023/06/26 10:00:43;;;;;;;;;0.00;0.00;;;;;;;;5098623;27;28570;-82
2023/06/26 10:03:10;;;;;;;;;1.00;1.00;;;;;;;;5133311;27;28549;-82
2023/06/26 10:05:36;;;;;;;;;1.00;1.00;;;;;;;;5100122;28;28558;-82
2023/06/26 10:08:02;;;;;;;;;1.00;1.00;;;;;;;;5098988;28;28550;-82
2023/06/26 10:10:28;;;;;;;;;1.00;1.00;;;;;;;;5098591;28;28526;-81
2023/06/26 10:12:57;;;;;;;;;1.00;1.00;;;;;;;;5098488;27;28349;-82
2023/06/26 10:15:23;;;;;;;;;1.00;1.00;;;;;;;;5099980;27;28321;-82
2023/06/26 10:17:56;;;;;;;;;1.00;1.00;;;;;;;;5100206;27;28321;-82
2023/06/26 10:20:22;;;;;;;;;1.00;1.00;;;;;;;;5099831;27;29652;-82
2023/06/26 10:22:47;;;;;;;;;0.00;0.00;;;;;;;;5098652;27;28575;-82
2023/06/26 10:25:22;;;;;;;;;0.00;0.00;;;;;;;;5099844;27;28505;-82
2023/06/26 10:27:50;;;;;;;;;0.00;0.00;;;;;;;;5097547;28;45461;-82
2023/06/26 10:30:22;;;;;;;;;0.00;0.00;;;;;;;;5098321;28;29332;-82
2023/06/26 10:32:48;;;;;;;;;0.00;0.00;;;;;;;;5098322;28;28510;-82
2023/06/26 10:35:13;;;;;;;;;0.00;0.00;;;;;;;;5100037;27;28262;-82
2023/06/26 10:37:43;;;;;;;;;0.00;0.00;;;;;;;;5099868;27;28557;-82
2023/06/26 10:40:08;;;;;;;;;0.00;0.00;;;;;;;;5099191;27;28257;-82
2023/06/26 10:42:35;;;;;;;;;0.00;0.00;;;;;;;;5099066;28;28558;-82
2023/06/26 10:45:13;;;;;;;;;0.00;0.00;;;;;;;;5099881;28;28506;-81
2023/06/26 10:47:40;;;;;;;;;0.00;0.00;;;;;;;;5099618;27;28420;-82
2023/06/26 10:50:18;;;;;;;;;0.00;0.00;;;;;;;;5099525;27;28526;-82
2023/06/26 10:52:44;;;;;;;;;0.33;0.33;;;;;;;;5099261;28;28498;-81
2023/06/26 10:55:09;;;;;;;;;0.00;0.00;;;;;;;;5099445;28;28323;-81
2023/06/26 10:57:35;;;;;;;;;0.00;0.00;;;;;;;;5099113;28;28637;-81
2023/06/26 11:00:11;;;;;;;;;0.00;0.00;;;;;;;;5098022;28;29861;-82
2023/06/26 11:02:53;;;;;;;;;1.00;1.00;;;;;;;;5097777;28;28593;-82
2023/06/26 11:05:26;;;;;;;;;1.00;1.00;;;;;;;;5097927;28;28641;-82
2023/06/26 11:08:08;;;;;;;;;0.00;0.00;;;;;;;;5099512;27;28300;-82
2023/06/26 11:10:53;;;;;;;;;0.00;0.00;;;;;;;;5098508;27;28593;-82
2023/06/26 11:13:19;;;;;;;;;0.00;0.00;;;;;;;;5097539;28;28538;-82
2023/06/26 11:15:44;;;;;;;;;0.00;0.00;;;;;;;;5097758;28;28367;-82
2023/06/26 11:18:10;;;;;;;;;0.00;0.00;;;;;;;;5097931;28;28296;-82
2023/06/26 11:20:35;;;;;;;;;0.00;0.00;;;;;;;;5098882;27;28395;-82
2023/06/26 11:23:03;;;;;;;;;0.33;0.33;;;;;;;;5099135;27;28305;-82
2023/06/26 11:25:28;;;;;;;;;0.00;0.00;;;;;;;;5097510;28;28331;-82
2023/06/26 11:27:53;;;;;;;;;0.00;0.00;;;;;;;;5099085;27;28238;-82
2023/06/26 11:30:23;;;;;;;;;0.00;0.00;;;;;;;;5131857;27;28572;-81
2023/06/26 11:32:48;;;;;;;;;1.00;1.00;;;;;;;;5098968;28;28491;-82
2023/06/26 11:35:21;;;;;;;;;0.00;0.00;;;;;;;;5099013;28;28412;-82
2023/06/26 11:37:47;;;;;;;;;2.00;0.00;;;;;;;;5098924;27;28404;-82
2023/06/26 11:40:18;;;;;;;;;0.00;0.00;;;;;;;;5098250;27;28395;-82
2023/06/26 11:42:44;;;;;;;;;0.00;0.00;;;;;;;;5097118;28;28827;-82
2023/06/26 11:45:09;;;;;;;;;0.00;0.00;;;;;;;;5098753;27;28348;-82
2023/06/26 11:47:35;;;;;;;;;0.00;0.00;;;;;;;;5098757;27;28485;-82
2023/06/26 11:50:04;;;;;;;;;0.00;0.00;;;;;;;;5098473;28;28523;-82
2023/06/26 11:52:29;;;;;;;;;0.00;0.00;;;;;;;;5097245;28;29671;-82
2023/06/26 11:54:54;;;;;;;;;0.00;0.00;;;;;;;;5098628;27;28388;-81
2023/06/26 11:57:20;;;;;;;;;1.00;1.00;;;;;;;;5096967;28;28693;-82
2023/06/26 11:59:45;;;;;;;;;0.00;0.00;;;;;;;;5098456;27;28424;-81
2023/06/26 12:02:12;;;;;;;;;0.00;0.00;;;;;;;;5096978;28;28365;-82
2023/06/26 12:04:40;;;;;;;;;0.00;0.00;;;;;;;;5097117;28;28367;-82
2023/06/26 12:07:07;;;;;;;;;0.00;0.00;;;;;;;;5098335;28;28554;-82
2023/06/26 12:09:33;;;;;;;;;0.00;0.00;;;;;;;;5098155;27;28440;-82
2023/06/26 12:11:59;;;;;;;;;1.00;1.00;;;;;;;;5097743;28;28379;-82
2023/06/26 12:14:25;;;;;;;;;0.00;0.00;;;;;;;;5098438;28;28237;-82
2023/06/26 12:16:50;;;;;;;;;0.00;0.00;;;;;;;;5098151;28;28312;-82
2023/06/26 12:19:16;;;;;;;;;0.00;0.00;;;;;;;;5098143;28;29159;-82
2023/06/26 12:21:41;;;;;;;;;0.00;0.00;;;;;;;;5097592;27;28250;-82
2023/06/26 12:24:06;;;;;;;;;1.00;0.00;;;;;;;;5097778;27;28304;-82
2023/06/26 12:26:38;;;;;;;;;0.00;0.00;;;;;;;;5096370;28;28632;-82
2023/06/26 12:29:07;;;;;;;;;0.00;0.00;;;;;;;;5098084;27;29197;-82
2023/06/26 12:31:33;;;;;;;;;0.00;0.00;;;;;;;;5098001;27;28454;-81
2023/06/26 12:33:58;;;;;;;;;0.00;0.00;;;;;;;;5096818;28;28396;-81
2023/06/26 12:36:23;;;;;;;;;0.00;0.00;;;;;;;;5096715;28;28665;-81
2023/06/26 12:38:49;;;;;;;;;0.00;0.00;;;;;;;;5096124;28;29358;-82
2023/06/26 12:41:16;;;;;;;;;0.00;0.00;;;;;;;;5097547;27;28410;-81
2023/06/26 12:43:41;;;;;;;;;0.00;0.00;;;;;;;;5097632;28;28333;-81
2023/06/26 12:46:07;;;;;;;;;0.00;0.00;;;;;;;;5096492;28;28416;-81
2023/06/26 12:48:43;;;;;;;;;0.00;0.00;;;;;;;;5097638;28;28561;-81
2023/06/26 12:51:09;;;;;;;;;0.00;0.00;;;;;;;;5097743;27;28513;-82
2023/06/26 12:53:35;;;;;;;;;0.00;0.00;;;;;;;;5097808;28;28306;-81
2023/06/26 12:56:00;;;;;;;;;0.00;0.00;;;;;;;;5097588;28;28246;-81
2023/06/26 12:58:25;;;;;;;;;0.00;0.00;;;;;;;;5097080;28;28530;-82
2023/06/26 13:00:50;;;;;;;;;1.00;1.00;;;;;;;;5096059;28;28361;-82
2023/06/26 13:03:15;;;;;;;;;0.00;0.00;;;;;;;;5097707;27;28245;-82
2023/06/26 13:05:41;;;;;;;;;0.00;0.00;;;;;;;;5097616;27;28283;-82
2023/06/26 13:08:06;;;;;;;;;0.00;0.00;;;;;;;;5096088;28;28714;-82
2023/06/26 13:10:31;;;;;;;;;0.00;0.00;;;;;;;;5097273;27;28265;-82
2023/06/26 13:12:56;;;;;;;;;0.00;0.00;;;;;;;;5097271;28;28223;-82
2023/06/26 13:15:21;;;;;;;;;0.00;0.00;;;;;;;;5096376;28;28253;-81
2023/06/26 13:17:47;;;;;;;;;0.00;0.00;;;;;;;;5097319;28;28306;-82
2023/06/26 13:20:12;;;;;;;;;0.00;0.00;;;;;;;;5097454;27;28450;-82
2023/06/26 13:22:38;;;;;;;;;0.00;0.00;;;;;;;;5097375;27;28273;-82
2023/06/26 13:25:03;;;;;;;;;0.00;0.00;;;;;;;;5097248;27;28406;-81
2023/06/26 13:27:28;;;;;;;;;0.00;0.00;;;;;;;;5097020;27;28352;-82
2023/06/26 13:29:53;;;;;;;;;1.00;0.00;;;;;;;;5095906;28;28395;-81
2023/06/26 13:32:19;;;;;;;;;1.00;1.00;;;;;;;;5097346;28;28372;-81
2023/06/26 13:34:44;;;;;;;;;0.00;0.00;;;;;;;;5098456;28;44565;-81
2023/06/26 13:37:09;;;;;;;;;0.00;0.00;;;;;;;;5100821;28;29198;-81
2023/06/26 13:39:34;;;;;;;;;0.00;0.00;;;;;;;;5098858;27;29645;-81
2023/06/26 13:42:00;;;;;;;;;0.00;0.00;;;;;;;;5099002;28;28383;-81
2023/06/26 13:44:25;;;;;;;;;0.00;0.00;;;;;;;;5100708;27;28328;-81
2023/06/26 13:46:50;;;;;;;;;0.00;0.00;;;;;;;;5100736;27;28325;-81
2023/06/26 13:49:15;;;;;;;;;0.00;0.00;;;;;;;;5100530;27;28428;-81
2023/06/26 13:51:45;;;;;;;;;0.00;0.00;;;;;;;;5100783;27;28492;-81
2023/06/26 13:54:10;;;;;;;;;0.00;0.00;;;;;;;;5100433;27;28247;-82
2023/06/26 13:56:37;;;;;;;;;0.00;0.00;;;;;;;;5098696;28;30565;-81
2023/06/26 13:59:02;;;;;;;;;0.33;0.33;;;;;;;;5098923;28;29380;-81
2023/06/26 14:01:28;;;;;;;;;0.00;0.00;;;;;;;;5100334;28;28348;-81
2023/06/26 14:03:53;;;;;;;;;0.00;0.00;;;;;;;;5100445;27;28343;-81
2023/06/26 14:06:18;;;;;;;;;0.67;0.67;;;;;;;;5098889;28;30144;-81
2023/06/26 14:08:43;;;;;;;;;1.00;1.00;;;;;;;;5099903;27;28422;-81
2023/06/26 14:11:09;;;;;;;;;0.00;0.00;;;;;;;;5100251;28;28306;-81
2023/06/26 14:13:34;;;;;;;;;0.00;0.00;;;;;;;;5098729;28;28575;-81
2023/06/26 14:16:00;;;;;;;;;0.00;0.00;;;;;;;;5100071;28;28466;-81
2023/06/26 14:18:25;;;;;;;;;0.00;0.00;;;;;;;;5133002;27;28472;-81
2023/06/26 14:20:50;;;;;;;;;0.00;0.00;;;;;;;;5098812;28;28309;-81
2023/06/26 14:23:15;;;;;;;;;0.00;0.00;;;;;;;;5100213;27;28325;-81
2023/06/26 14:25:41;;;;;;;;;0.00;0.00;;;;;;;;5099951;27;28396;-81
2023/06/26 14:28:06;;;;;;;;;0.00;0.00;;;;;;;;5098158;27;28731;-81
2023/06/26 14:30:31;;;;;;;;;1.00;1.00;;;;;;;;5100011;28;28550;-81
2023/06/26 14:32:56;;;;;;;;;0.00;0.00;;;;;;;;5099908;27;28330;-81
2023/06/26 14:35:22;;;;;;;;;0.00;0.00;;;;;;;;5099843;28;28532;-81
2023/06/26 14:37:48;;;;;;;;;0.33;0.33;;;;;;;;5099756;28;28365;-81